Lauderdale, MS (39335)

10:42 AM CDT on August 30, 2015 (GMT -0500)
Bailey, MS (Cook Road) | | Change Station
CLOSE
Current Station
Personal Weather Station
Location: Meridian, MS
Elevation: 424 ft
Nearby Weather Stations

Elev 424 ft 32.46 °N, 88.69 °W | Updated 2 seconds ago

Partly Cloudy
Partly Cloudy
81.3 °F
Feels Like 86 °F
N
3.0
Wind Variable Wind from NE
Gusts 5.0 mph

Today
High -- | Low -- °F
--% Chance of Precip.
Yesterday
High -- | Low -- °F
Precip. -- in
6:28 AM 7:21 PM
Full, 99% visible
Pressure 30.08 in
Visibility 10.0 miles
Clouds Few 5000 ft
Heat Index 86 °F
Dew Point 72 °F
Humidity 74%
Rainfall 0.00 in
Snow Depth Not available.
UV 5.0 out of 12
Pollen 8.70 out of 12
Air Quality Not available.
Flu Activity Not available.
METAR KMEI 301458Z 16003KT 10SM FEW050 25/21 A3009 RMK AO2 SLP184 T02500211 53009
Pressure 30.08 in
Visibility 10.0 miles
Clouds Few 5000 ft
Heat Index 86 °F
Dew Point 72 °F
Humidity 74%
Rainfall 0.00 in
Snow Depth Not available.
UV 5.0 out of 12
Pollen 8.70 out of 12
Air Quality Not available.
Flu Activity Not available.
METAR KMEI 301458Z 16003KT 10SM FEW050 25/21 A3009 RMK AO2 SLP184 T02500211 53009

10-Day Weather Forecast

×

Almanac

Astronomy

Aug. 30, 2015 Rise Set
Actual Time
Civil Twilight
Nautical Twilight
Astronomical Twilight
Moon
Length of Visible Light
Length of Day
Tomorrow will be .
, % of the Moon is Illuminated

Today's Extremes

State Highs State Lows

Community

WunderPhotos

Upload Photos

1,850,997 photos uploaded!

WunderBlogs® & News

Nearby

Air Quality

  Air Quality AQ Index Pollutant
Not available.

Snow Depth

Station Depth Elevation

Earthquake Activity

City Distance Mag. Time & Date
Minimum magnitude displayed is 2.5.

Coastal Water Temperatures

Place Temperature

Stations

Nearby Weather Stations

Station Location Temp. Windchill Dew Point Humidity Wind Precip. Elev Updated Type